Terminal Aerodrome Forecast
Issued by NWS

Home | Current Version | Previous Version | Text Only | Print | Product List | Glossary On
Versions: 1 2 3 4 5 6 7 8 9 10 11 12
000
FTUS45 KBYZ 170524
TAFLVM
TAF
KLVM 170524Z 1706/1806 24026G40KT P6SM DRSN SCT200
     FM180100 23032G46KT P6SM DRSN SCT200=

USA.gov is the U.S. government's official web portal to all federal, state and local government web resources and services.